createdAt,value
2022-10-30T00:02:05.471Z,21.05
2022-10-30T00:07:07.028Z,20.58
2022-10-30T00:12:08.508Z,22.70
2022-10-30T00:17:10.012Z,22.60
2022-10-30T00:22:11.510Z,21.95
2022-10-30T00:27:13.007Z,20.45
2022-10-30T00:32:14.518Z,16.42
2022-10-30T00:37:18.014Z,19.95
2022-10-30T00:42:19.506Z,23.38
2022-10-30T00:47:36.190Z,16.75
2022-10-30T00:52:42.058Z,17.38
2022-10-30T00:57:44.319Z,21.50
2022-10-30T01:02:46.016Z,16.75
2022-10-30T01:07:47.606Z,18.00
2022-10-30T01:12:50.374Z,18.40
2022-10-30T01:18:13.655Z,18.13
2022-10-30T01:23:35.228Z,17.80
2022-10-30T01:28:55.415Z,17.38
2022-10-30T01:34:47.246Z,15.52
2022-10-30T01:39:48.831Z,18.52
2022-10-30T01:44:50.394Z,18.33
2022-10-30T01:50:14.697Z,17.15
2022-10-30T01:55:19.164Z,19.73
2022-10-30T02:00:21.342Z,17.33
2022-10-30T02:05:42.996Z,17.50
2022-10-30T02:10:46.665Z,19.33
2022-10-30T02:15:49.043Z,16.08
2022-10-30T02:20:50.698Z,19.08
2022-10-30T02:25:52.278Z,14.95
2022-10-30T02:30:53.812Z,16.85
2022-10-30T02:35:55.349Z,16.92
2022-10-30T02:40:58.423Z,17.20
2022-10-30T02:46:00.035Z,15.27
2022-10-30T02:51:02.509Z,16.20
2022-10-30T02:56:06.057Z,21.20
2022-10-30T03:01:13.041Z,15.18
2022-10-30T03:06:16.611Z,16.73
2022-10-30T03:11:19.678Z,15.40
2022-10-30T03:16:24.520Z,15.57
2022-10-30T03:21:27.343Z,15.38
2022-10-30T03:26:28.893Z,17.33
2022-10-30T03:31:37.577Z,16.67
2022-10-30T03:36:55.248Z,19.60
2022-10-30T03:41:57.259Z,16.10
2022-10-30T03:46:58.942Z,16.27
2022-10-30T03:52:12.211Z,13.43
2022-10-30T03:57:13.814Z,16.42
2022-10-30T04:02:27.267Z,13.32
2022-10-30T04:07:29.830Z,13.25
2022-10-30T04:12:31.367Z,16.35
2022-10-30T04:17:32.915Z,12.43
2022-10-30T04:22:38.457Z,15.88
2022-10-30T04:27:41.410Z,15.02
2022-10-30T04:32:49.300Z,15.38
2022-10-30T04:38:00.827Z,14.90
2022-10-30T04:43:05.911Z,15.85
2022-10-30T04:48:13.479Z,16.48
2022-10-30T04:53:18.119Z,16.52
2022-10-30T04:58:22.538Z,15.50
2022-10-30T05:03:32.916Z,15.20
2022-10-30T05:08:35.421Z,15.43
2022-10-30T05:13:46.200Z,16.40
2022-10-30T05:18:47.883Z,13.82
2022-10-30T05:23:49.359Z,13.75
2022-10-30T05:28:51.155Z,13.50
2022-10-30T05:33:52.684Z,13.48
2022-10-30T05:38:54.989Z,13.07
2022-10-30T05:44:05.825Z,15.65
2022-10-30T05:49:08.476Z,13.32
2022-10-30T05:54:10.135Z,12.23
2022-10-30T05:59:18.084Z,14.35
2022-10-30T06:04:20.760Z,18.20
2022-10-30T06:09:23.087Z,13.80
2022-10-30T06:14:42.859Z,11.68
2022-10-30T06:19:44.379Z,14.77
2022-10-30T06:25:17.627Z,13.80
2022-10-30T06:30:53.950Z,13.32
2022-10-30T06:35:55.653Z,11.68
2022-10-30T06:40:57.775Z,15.93
2022-10-30T06:46:19.794Z,14.05
2022-10-30T06:51:21.634Z,13.85
2022-10-30T06:56:23.386Z,12.48
2022-10-30T07:01:45.956Z,14.13
2022-10-30T07:06:50.684Z,13.07
2022-10-30T07:11:56.929Z,13.23
2022-10-30T07:17:17.284Z,14.52
2022-10-30T07:22:25.717Z,14.93
2022-10-30T07:27:29.231Z,15.30
2022-10-30T07:33:04.087Z,16.17
2022-10-30T07:38:25.562Z,17.15
2022-10-30T07:43:32.721Z,14.30
2022-10-30T07:48:56.929Z,12.93
2022-10-30T07:54:03.870Z,13.23
2022-10-30T07:59:07.334Z,14.85
2022-10-30T08:04:13.988Z,15.93
2022-10-30T08:09:15.672Z,14.02
2022-10-30T08:14:18.744Z,15.05
2022-10-30T08:19:20.318Z,15.98
2022-10-30T08:24:22.758Z,15.13
2022-10-30T08:29:27.043Z,16.08
2022-10-30T08:34:31.683Z,16.45
2022-10-30T08:39:38.783Z,16.25
2022-10-30T08:44:59.700Z,15.73
2022-10-30T08:50:26.427Z,15.40
2022-10-30T08:55:28.051Z,18.23
2022-10-30T09:00:31.533Z,17.20
2022-10-30T09:05:53.017Z,17.15
2022-10-30T09:11:12.978Z,15.35
2022-10-30T09:16:14.497Z,14.90
2022-10-30T09:21:16.195Z,17.10
2022-10-30T09:26:21.029Z,14.75
2022-10-30T09:31:58.712Z,15.30
2022-10-30T09:37:01.793Z,16.85
2022-10-30T09:42:21.747Z,15.00
2022-10-30T09:47:43.626Z,16.85
2022-10-30T09:53:10.841Z,15.35
2022-10-30T09:58:48.074Z,16.83
2022-10-30T10:03:56.752Z,14.63
2022-10-30T10:09:23.384Z,15.13
2022-10-30T10:14:51.547Z,14.45
2022-10-30T10:20:00.737Z,13.18
2022-10-30T10:25:03.918Z,13.63
2022-10-30T10:30:13.016Z,14.48
2022-10-30T10:35:48.330Z,15.13
2022-10-30T10:41:23.672Z,18.08
2022-10-30T10:46:43.385Z,14.77
2022-10-30T10:51:59.352Z,14.10
2022-10-30T10:57:04.001Z,16.00
2022-10-30T11:02:05.643Z,13.43
2022-10-30T11:07:26.454Z,14.10
2022-10-30T11:12:33.741Z,14.38
2022-10-30T11:18:10.172Z,15.15
2022-10-30T11:23:41.560Z,13.02
2022-10-30T11:28:50.575Z,14.75
2022-10-30T11:33:52.125Z,15.38
2022-10-30T11:38:55.975Z,13.75
2022-10-30T11:43:57.523Z,14.73
2022-10-30T11:48:59.046Z,15.75
2022-10-30T11:54:01.247Z,15.00
2022-10-30T11:59:04.347Z,16.05
2022-10-30T12:04:27.174Z,18.38
2022-10-30T12:09:29.432Z,17.13
2022-10-30T12:14:30.970Z,17.17
2022-10-30T12:19:32.466Z,15.65
2022-10-30T12:24:36.942Z,15.13
2022-10-30T12:30:07.242Z,14.20
2022-10-30T12:35:17.211Z,15.63
2022-10-30T12:40:25.705Z,15.88
2022-10-30T12:45:42.779Z,14.45
2022-10-30T12:50:57.060Z,17.58
2022-10-30T12:56:01.699Z,19.27
2022-10-30T13:01:26.649Z,15.93
2022-10-30T13:06:31.861Z,23.05
2022-10-30T13:11:40.372Z,15.75
2022-10-30T13:16:41.910Z,19.15
2022-10-30T13:22:02.020Z,13.38
2022-10-30T13:27:15.625Z,16.05
2022-10-30T13:32:45.379Z,15.25
2022-10-30T13:37:58.560Z,14.75
2022-10-30T13:43:25.550Z,14.45
2022-10-30T13:48:44.877Z,16.08
2022-10-30T13:53:49.197Z,19.05
2022-10-30T13:59:00.131Z,24.33
2022-10-30T14:04:13.893Z,17.08
2022-10-30T14:09:26.589Z,17.15
2022-10-30T14:14:31.746Z,16.50
2022-10-30T14:19:33.218Z,15.95
2022-10-30T14:24:34.992Z,18.58
2022-10-30T14:29:41.406Z,16.27
2022-10-30T14:34:51.893Z,17.55
2022-10-30T14:39:54.724Z,16.83
2022-10-30T14:45:18.228Z,16.85
2022-10-30T14:50:28.327Z,18.95
2022-10-30T14:55:50.258Z,15.25
2022-10-30T15:01:16.583Z,16.25
2022-10-30T15:06:36.327Z,19.92
2022-10-30T15:12:01.111Z,18.85
2022-10-30T15:17:02.845Z,17.33
2022-10-30T15:22:04.382Z,15.85
2022-10-30T15:27:05.970Z,18.52
2022-10-30T15:32:27.756Z,19.20
2022-10-30T15:37:29.864Z,19.95
2022-10-30T15:42:31.416Z,19.50
2022-10-30T15:47:33.201Z,17.63
2022-10-30T15:52:35.102Z,19.40
2022-10-30T15:58:03.464Z,21.58
2022-10-30T16:03:17.138Z,20.25
2022-10-30T16:08:23.070Z,21.30
2022-10-30T16:13:31.148Z,16.67
2022-10-30T16:18:35.817Z,18.67
2022-10-30T16:23:41.205Z,21.92
2022-10-30T16:28:47.563Z,19.92
2022-10-30T16:33:49.359Z,19.38
2022-10-30T16:38:51.056Z,20.58
2022-10-30T16:44:12.475Z,19.75
2022-10-30T16:49:17.504Z,22.23
2022-10-30T16:54:21.370Z,19.67
2022-10-30T16:59:32.906Z,20.58
2022-10-30T17:04:34.959Z,21.73
2022-10-30T17:09:38.054Z,20.02
2022-10-30T17:14:54.449Z,23.15
2022-10-30T17:20:06.721Z,24.23
2022-10-30T17:25:17.133Z,22.65
2022-10-30T17:30:29.311Z,20.88
2022-10-30T17:35:30.785Z,21.30
2022-10-30T17:40:32.260Z,23.55
2022-10-30T17:45:33.727Z,20.25
2022-10-30T17:50:35.215Z,22.05
2022-10-30T17:55:38.593Z,23.42
2022-10-30T18:00:40.164Z,22.92
2022-10-30T18:05:43.086Z,26.73
2022-10-30T18:10:44.751Z,23.15
2022-10-30T18:15:52.093Z,24.00
2022-10-30T18:20:53.602Z,26.90
2022-10-30T18:25:55.116Z,26.27
2022-10-30T18:30:58.542Z,23.77
2022-10-30T18:36:00.123Z,26.98
2022-10-30T18:41:01.621Z,24.83
2022-10-30T18:46:03.087Z,23.10
2022-10-30T18:51:05.639Z,24.80
2022-10-30T18:56:09.710Z,25.10
2022-10-30T19:01:13.217Z,24.38
2022-10-30T19:06:20.823Z,27.50
2022-10-30T19:11:25.042Z,26.13
2022-10-30T19:16:28.296Z,24.25
2022-10-30T19:21:33.375Z,27.17
2022-10-30T19:26:34.889Z,24.33
2022-10-30T19:31:36.439Z,25.02
2022-10-30T19:36:38.132Z,28.17
2022-10-30T19:41:40.090Z,22.17
2022-10-30T19:46:41.709Z,24.10
2022-10-30T19:51:43.252Z,23.90
2022-10-30T19:56:44.768Z,25.85
2022-10-30T20:01:46.419Z,28.80
2022-10-30T20:06:48.027Z,29.08
2022-10-30T20:11:49.564Z,26.35
2022-10-30T20:16:51.050Z,23.13
2022-10-30T20:21:52.554Z,24.67
2022-10-30T20:26:56.819Z,24.58
2022-10-30T20:31:58.327Z,25.80
2022-10-30T20:36:59.817Z,26.88
2022-10-30T20:42:01.359Z,28.55
2022-10-30T20:47:02.848Z,22.85
2022-10-30T20:52:04.490Z,23.50
2022-10-30T20:57:06.001Z,24.55
2022-10-30T21:02:10.515Z,27.50
2022-10-30T21:07:12.091Z,29.77
2022-10-30T21:12:13.592Z,24.95
2022-10-30T21:17:15.103Z,26.77
2022-10-30T21:22:16.656Z,25.92
2022-10-30T21:27:18.206Z,25.40
2022-10-30T21:32:19.730Z,20.80
2022-10-30T21:37:21.327Z,24.25
2022-10-30T21:42:22.848Z,23.23
2022-10-30T21:47:24.399Z,24.75
2022-10-30T21:52:25.900Z,26.15
2022-10-30T21:57:28.677Z,23.65
2022-10-30T22:02:30.267Z,20.40
2022-10-30T22:07:31.755Z,22.88
2022-10-30T22:12:33.293Z,23.70
2022-10-30T22:17:35.210Z,21.90
2022-10-30T22:22:36.862Z,20.70
2022-10-30T22:27:38.399Z,22.75
2022-10-30T22:32:39.943Z,22.80
2022-10-30T22:37:41.460Z,20.63
2022-10-30T22:42:42.980Z,23.35
2022-10-30T22:47:44.461Z,21.08
2022-10-30T22:52:45.967Z,24.35
2022-10-30T22:57:47.458Z,22.08
2022-10-30T23:02:48.983Z,23.30
2022-10-30T23:07:51.312Z,20.50
2022-10-30T23:12:52.807Z,21.35
2022-10-30T23:17:54.332Z,20.98
2022-10-30T23:22:55.811Z,21.80
2022-10-30T23:27:57.565Z,20.20
2022-10-30T23:32:59.318Z,20.73
2022-10-30T23:38:01.097Z,22.17
2022-10-30T23:43:03.052Z,19.83
2022-10-30T23:48:05.009Z,22.33
2022-10-30T23:53:06.500Z,20.50
2022-10-30T23:58:08.130Z,20.35
